createdAt,value
2023-03-01T00:01:04.083Z,37.30
2023-03-01T00:03:30.819Z,37.00
2023-03-01T00:05:57.502Z,37.10
2023-03-01T00:08:24.566Z,37.30
2023-03-01T00:11:00.561Z,37.20
2023-03-01T00:13:27.334Z,37.00
2023-03-01T00:15:54.011Z,37.00
2023-03-01T00:18:21.091Z,37.30
2023-03-01T00:20:52.797Z,37.30
2023-03-01T00:23:20.147Z,37.20
2023-03-01T00:25:46.914Z,37.40
2023-03-01T00:28:13.643Z,37.40
2023-03-01T00:30:40.447Z,37.40
2023-03-01T00:33:07.231Z,37.50
2023-03-01T00:35:34.919Z,37.30
2023-03-01T00:38:01.901Z,37.50
2023-03-01T00:40:30.478Z,37.70
2023-03-01T00:42:57.259Z,37.90
2023-03-01T00:45:24.996Z,37.80
2023-03-01T00:47:51.986Z,37.80
2023-03-01T00:50:19.593Z,38.30
2023-03-01T00:52:46.578Z,38.30
2023-03-01T00:55:13.387Z,38.30
2023-03-01T00:57:40.185Z,38.10
2023-03-01T01:00:08.206Z,38.10
2023-03-01T01:02:35.321Z,38.20
2023-03-01T01:05:02.164Z,38.40
2023-03-01T01:07:28.826Z,38.40
2023-03-01T01:09:55.608Z,38.50
2023-03-01T01:12:22.450Z,38.40
2023-03-01T01:14:49.328Z,38.70
2023-03-01T01:17:16.099Z,38.70
2023-03-01T01:19:42.847Z,38.10
2023-03-01T01:22:09.606Z,38.40
2023-03-01T01:24:36.421Z,38.30
2023-03-01T01:27:03.212Z,38.60
2023-03-01T01:29:29.898Z,38.60
2023-03-01T01:31:56.680Z,38.60
2023-03-01T01:34:23.829Z,38.40
2023-03-01T01:36:57.342Z,38.40
2023-03-01T01:39:24.265Z,38.60
2023-03-01T01:41:51.013Z,38.30
2023-03-01T01:44:25.350Z,38.40
2023-03-01T01:46:55.285Z,38.70
2023-03-01T01:49:33.434Z,38.60
2023-03-01T01:52:16.284Z,38.80
2023-03-01T01:54:51.596Z,39.20
2023-03-01T01:57:22.744Z,39.20
2023-03-01T01:59:53.758Z,39.20
2023-03-01T02:02:21.154Z,39.40
2023-03-01T02:04:50.711Z,39.50
2023-03-01T02:07:21.734Z,39.80
2023-03-01T02:09:51.303Z,39.90
2023-03-01T02:12:20.280Z,39.70
2023-03-01T02:14:47.142Z,39.70
2023-03-01T02:17:17.350Z,39.80
2023-03-01T02:20:22.004Z,40.00
2023-03-01T02:22:49.763Z,40.00
2023-03-01T02:25:25.539Z,39.90
2023-03-01T02:28:22.024Z,40.00
2023-03-01T02:31:09.872Z,39.70
2023-03-01T02:33:38.747Z,40.10
2023-03-01T02:36:10.194Z,39.70
2023-03-01T02:38:37.013Z,39.40
2023-03-01T02:41:06.681Z,39.30
2023-03-01T02:43:34.437Z,39.40
2023-03-01T02:46:25.201Z,39.20
2023-03-01T02:48:57.459Z,39.40
2023-03-01T02:51:48.397Z,39.50
2023-03-01T02:54:37.637Z,39.70
2023-03-01T02:57:04.532Z,39.80
2023-03-01T02:59:40.176Z,39.90
2023-03-01T03:02:08.681Z,40.00
2023-03-01T03:04:35.562Z,39.70
2023-03-01T03:07:02.318Z,39.50
2023-03-01T03:09:29.385Z,39.40
2023-03-01T03:11:56.064Z,39.40
2023-03-01T03:14:22.827Z,39.50
2023-03-01T03:16:51.169Z,39.30
2023-03-01T03:19:19.311Z,39.40
2023-03-01T03:21:46.053Z,39.40
2023-03-01T03:24:12.719Z,39.50
2023-03-01T03:26:39.451Z,39.60
2023-03-01T03:29:06.236Z,39.70
2023-03-01T03:31:32.987Z,39.60
2023-03-01T03:33:59.920Z,39.70
2023-03-01T03:36:27.143Z,40.00
2023-03-01T03:38:53.989Z,39.60
2023-03-01T03:41:20.739Z,39.80
2023-03-01T03:43:47.492Z,40.00
2023-03-01T03:46:14.370Z,40.20
2023-03-01T03:48:44.725Z,40.20
2023-03-01T03:51:16.668Z,40.20
2023-03-01T03:53:44.404Z,40.20
2023-03-01T03:57:12.880Z,40.20
2023-03-01T03:59:39.632Z,40.40
2023-03-01T04:02:06.648Z,40.30
2023-03-01T04:04:33.348Z,40.20
2023-03-01T04:07:00.100Z,40.40
2023-03-01T04:09:26.786Z,40.40
2023-03-01T04:11:53.538Z,40.50
2023-03-01T04:14:20.192Z,40.60
2023-03-01T04:16:46.969Z,40.60
2023-03-01T04:19:13.650Z,40.60
2023-03-01T04:21:40.298Z,40.60
2023-03-01T04:24:07.777Z,40.50
2023-03-01T04:26:34.438Z,40.80
2023-03-01T04:29:01.264Z,40.80
2023-03-01T04:31:28.198Z,40.90
2023-03-01T04:33:56.661Z,40.70
2023-03-01T04:36:26.395Z,40.90
2023-03-01T04:38:53.646Z,40.90
2023-03-01T04:41:22.612Z,40.90
2023-03-01T04:43:49.814Z,41.20
2023-03-01T04:46:19.680Z,41.20
2023-03-01T04:48:48.151Z,41.30
2023-03-01T04:51:15.060Z,41.30
2023-03-01T04:53:43.155Z,42.00
2023-03-01T04:56:10.353Z,41.20
2023-03-01T04:58:37.447Z,41.30
2023-03-01T05:01:16.311Z,41.20
2023-03-01T05:03:48.458Z,41.40
2023-03-01T05:06:16.426Z,41.10
2023-03-01T05:08:44.154Z,41.10
2023-03-01T05:11:12.146Z,41.00
2023-03-01T05:13:40.074Z,40.90
2023-03-01T05:16:08.176Z,40.80
2023-03-01T05:18:35.963Z,40.60
2023-03-01T05:21:11.069Z,40.80
2023-03-01T05:23:38.252Z,41.00
2023-03-01T05:26:09.399Z,41.00
2023-03-01T05:28:38.937Z,41.20
2023-03-01T05:31:10.587Z,41.40
2023-03-01T05:33:42.105Z,41.50
2023-03-01T05:36:10.753Z,41.40
2023-03-01T05:38:37.740Z,41.50
2023-03-01T05:41:04.554Z,41.40
2023-03-01T05:43:35.353Z,41.40
2023-03-01T05:46:02.474Z,41.50
2023-03-01T05:48:29.238Z,41.30
2023-03-01T05:50:55.895Z,41.40
2023-03-01T05:53:22.607Z,41.20
2023-03-01T05:55:50.777Z,41.30
2023-03-01T05:58:20.480Z,41.40
2023-03-01T06:00:48.649Z,41.50
2023-03-01T06:03:17.645Z,41.60
2023-03-01T06:05:45.043Z,41.60
2023-03-01T06:08:13.144Z,41.40
2023-03-01T06:10:40.119Z,41.10
2023-03-01T06:13:06.862Z,41.10
2023-03-01T06:15:33.667Z,41.00
2023-03-01T06:18:00.695Z,40.50
2023-03-01T06:20:29.487Z,41.10
2023-03-01T06:22:56.656Z,41.20
2023-03-01T06:25:25.658Z,41.20
2023-03-01T06:27:55.782Z,41.30
2023-03-01T06:30:24.209Z,41.10
2023-03-01T06:32:51.735Z,41.20
2023-03-01T06:35:19.689Z,41.60
2023-03-01T06:37:48.101Z,41.60
2023-03-01T06:40:16.302Z,41.70
2023-03-01T06:42:45.163Z,42.00
2023-03-01T06:45:12.635Z,42.00
2023-03-01T06:47:39.642Z,42.30
2023-03-01T06:50:07.196Z,42.00
2023-03-01T06:52:33.942Z,41.90
2023-03-01T06:55:01.188Z,42.00
2023-03-01T06:57:28.223Z,42.00
2023-03-01T06:59:55.041Z,41.90
2023-03-01T07:02:21.780Z,41.70
2023-03-01T07:04:53.446Z,41.80
2023-03-01T07:07:21.010Z,41.80
2023-03-01T07:09:49.719Z,41.80
2023-03-01T07:12:16.869Z,41.90
2023-03-01T07:14:44.916Z,42.00
2023-03-01T07:17:11.672Z,41.90
2023-03-01T07:19:38.498Z,41.90
2023-03-01T07:22:05.534Z,41.80
2023-03-01T07:24:32.376Z,41.60
2023-03-01T07:26:59.053Z,41.30
2023-03-01T07:29:25.743Z,41.50
2023-03-01T07:31:52.465Z,41.40
2023-03-01T07:34:19.216Z,41.70
2023-03-01T07:36:46.367Z,41.80
2023-03-01T07:39:13.329Z,42.30
2023-03-01T07:41:40.217Z,42.30
2023-03-01T07:44:07.024Z,42.00
2023-03-01T07:46:33.956Z,42.10
2023-03-01T07:49:00.852Z,42.30
2023-03-01T07:51:27.647Z,42.30
2023-03-01T07:53:54.502Z,42.40
2023-03-01T07:56:23.002Z,42.60
2023-03-01T07:58:51.192Z,42.60
2023-03-01T08:01:21.292Z,42.30
2023-03-01T08:03:48.329Z,42.60
2023-03-01T08:06:17.440Z,42.70
2023-03-01T08:08:44.582Z,42.80
2023-03-01T08:11:13.041Z,42.80
2023-03-01T08:13:39.862Z,43.10
2023-03-01T08:16:10.904Z,42.90
2023-03-01T08:18:38.056Z,42.90
2023-03-01T08:21:06.287Z,42.90
2023-03-01T08:23:32.997Z,43.10
2023-03-01T08:26:07.455Z,42.90
2023-03-01T08:28:34.663Z,43.10
2023-03-01T08:31:01.471Z,42.90
2023-03-01T08:33:28.610Z,42.80
2023-03-01T08:36:04.164Z,42.60
2023-03-01T08:38:30.975Z,42.30
2023-03-01T08:41:00.998Z,42.20
2023-03-01T08:43:27.819Z,42.30
2023-03-01T08:45:54.600Z,42.60
2023-03-01T08:48:21.439Z,42.30
2023-03-01T08:50:48.182Z,42.30
2023-03-01T08:53:14.931Z,42.30
2023-03-01T08:55:41.785Z,42.10
2023-03-01T08:58:08.560Z,42.10
2023-03-01T09:00:35.643Z,41.90
2023-03-01T09:03:03.222Z,41.70
2023-03-01T09:05:33.691Z,41.80
2023-03-01T09:08:00.653Z,41.80
2023-03-01T09:10:27.526Z,41.70
2023-03-01T09:12:54.239Z,41.60
2023-03-01T09:15:20.937Z,41.40
2023-03-01T09:17:47.908Z,41.40
2023-03-01T09:20:14.787Z,41.10
2023-03-01T09:22:41.609Z,41.10
2023-03-01T09:25:08.684Z,41.10
2023-03-01T09:27:35.447Z,41.00
2023-03-01T09:30:02.703Z,40.90
2023-03-01T09:32:31.856Z,40.80
2023-03-01T09:35:07.654Z,40.80
2023-03-01T09:37:35.857Z,40.50
2023-03-01T09:40:06.213Z,40.40
2023-03-01T09:42:35.829Z,40.30
2023-03-01T09:45:12.321Z,40.00
2023-03-01T09:47:39.084Z,40.20
2023-03-01T09:50:19.193Z,40.20
2023-03-01T09:53:10.037Z,39.80
2023-03-01T09:56:11.940Z,39.50
2023-03-01T09:58:58.601Z,39.50
2023-03-01T10:01:44.835Z,39.40
2023-03-01T10:04:20.765Z,39.40
2023-03-01T10:06:59.184Z,39.20
2023-03-01T10:09:26.342Z,39.00
2023-03-01T10:11:57.591Z,39.00
2023-03-01T10:14:47.282Z,38.30
2023-03-01T10:17:37.718Z,38.40
2023-03-01T10:20:22.358Z,38.40
2023-03-01T10:22:53.359Z,38.10
2023-03-01T10:25:43.764Z,38.20
2023-03-01T10:28:31.900Z,37.70
2023-03-01T10:31:00.182Z,37.90
2023-03-01T10:33:38.036Z,37.60
2023-03-01T10:36:05.286Z,37.60
2023-03-01T10:38:48.592Z,37.70
2023-03-01T10:41:15.396Z,37.50
2023-03-01T10:43:50.720Z,37.40
2023-03-01T10:46:38.466Z,37.20
2023-03-01T10:49:26.591Z,37.20
2023-03-01T10:51:54.916Z,37.10
2023-03-01T10:54:32.486Z,37.00
2023-03-01T10:57:02.878Z,36.80
2023-03-01T10:59:33.659Z,36.90
2023-03-01T11:02:30.452Z,36.90
2023-03-01T11:05:02.541Z,36.60
2023-03-01T11:07:29.759Z,36.60
2023-03-01T11:09:56.471Z,36.80
2023-03-01T11:12:23.454Z,36.80
2023-03-01T11:14:54.505Z,36.80
2023-03-01T11:17:39.081Z,36.70
2023-03-01T11:20:14.394Z,36.70
2023-03-01T11:23:07.668Z,36.50
2023-03-01T11:25:39.535Z,36.00
2023-03-01T11:28:08.269Z,36.00
2023-03-01T11:31:13.167Z,36.10
2023-03-01T11:33:59.099Z,36.20
2023-03-01T11:36:43.644Z,36.20
2023-03-01T11:39:32.057Z,36.20
2023-03-01T11:42:18.411Z,35.80
2023-03-01T11:44:49.222Z,35.70
2023-03-01T11:47:21.953Z,35.80
2023-03-01T11:50:15.578Z,36.10
2023-03-01T11:53:01.776Z,35.90
2023-03-01T11:56:23.854Z,36.00
2023-03-01T11:59:03.336Z,35.50
2023-03-01T12:01:42.771Z,35.50
2023-03-01T12:04:36.603Z,35.50
2023-03-01T12:07:15.144Z,35.40
2023-03-01T12:10:14.494Z,35.50
2023-03-01T12:12:54.137Z,35.50
2023-03-01T12:15:40.219Z,35.40
2023-03-01T12:18:28.415Z,35.30
2023-03-01T12:21:07.171Z,35.50
2023-03-01T12:23:55.930Z,34.90
2023-03-01T12:26:44.535Z,34.90
2023-03-01T12:29:26.981Z,34.90
2023-03-01T12:32:09.065Z,34.80
2023-03-01T12:35:04.850Z,34.90
2023-03-01T12:37:58.006Z,34.60
2023-03-01T12:40:44.074Z,35.00
2023-03-01T12:43:28.938Z,34.80
2023-03-01T12:46:16.533Z,34.60
2023-03-01T12:49:09.024Z,34.70
2023-03-01T12:51:38.532Z,34.60
2023-03-01T12:54:23.926Z,34.60
2023-03-01T12:56:53.394Z,34.50
2023-03-01T12:59:52.253Z,34.60
2023-03-01T13:02:23.122Z,34.50
2023-03-01T13:05:17.355Z,34.50
2023-03-01T13:08:21.745Z,34.20
2023-03-01T13:10:52.972Z,34.00
2023-03-01T13:13:22.504Z,34.30
2023-03-01T13:15:52.077Z,33.90
2023-03-01T13:18:24.194Z,33.80
2023-03-01T13:20:52.852Z,33.70
2023-03-01T13:23:22.671Z,33.70
2023-03-01T13:26:03.864Z,33.50
2023-03-01T13:28:36.718Z,33.50
2023-03-01T13:31:08.554Z,33.30
2023-03-01T13:33:47.460Z,33.20
2023-03-01T13:36:30.171Z,33.70
2023-03-01T13:39:02.242Z,32.90
2023-03-01T13:41:44.290Z,32.70
2023-03-01T13:44:36.928Z,32.50
2023-03-01T13:47:15.008Z,32.40
2023-03-01T13:49:51.029Z,32.50
2023-03-01T13:52:33.797Z,32.40
2023-03-01T13:55:02.779Z,32.40
2023-03-01T13:57:35.109Z,32.20
2023-03-01T14:00:01.876Z,32.00
2023-03-01T14:02:28.791Z,32.00
2023-03-01T14:05:02.265Z,31.80
2023-03-01T14:07:32.523Z,31.60
2023-03-01T14:10:06.845Z,31.70
2023-03-01T14:12:48.570Z,31.40
2023-03-01T14:15:28.824Z,30.30
2023-03-01T14:18:10.592Z,30.80
2023-03-01T14:20:43.924Z,31.20
2023-03-01T14:23:14.655Z,31.00
2023-03-01T14:25:49.793Z,31.20
2023-03-01T14:28:29.584Z,30.80
2023-03-01T14:30:58.559Z,31.00
2023-03-01T14:33:28.009Z,30.20
2023-03-01T14:36:04.985Z,30.30
2023-03-01T14:38:39.236Z,31.50
2023-03-01T14:41:19.487Z,29.90
2023-03-01T14:43:57.259Z,30.20
2023-03-01T14:46:33.110Z,29.90
2023-03-01T14:49:11.131Z,29.50
2023-03-01T14:51:43.129Z,29.90
2023-03-01T14:54:47.108Z,30.00
2023-03-01T14:57:18.421Z,30.20
2023-03-01T14:59:45.919Z,29.60
2023-03-01T15:02:22.704Z,30.00
2023-03-01T15:04:57.715Z,29.60
2023-03-01T15:07:30.543Z,30.00
2023-03-01T15:09:57.912Z,30.00
2023-03-01T15:12:30.410Z,29.50
2023-03-01T15:15:04.294Z,30.10
2023-03-01T15:17:39.026Z,30.20
2023-03-01T15:20:17.626Z,30.20
2023-03-01T15:22:50.711Z,29.90
2023-03-01T15:25:19.717Z,29.60
2023-03-01T15:27:48.116Z,30.00
2023-03-01T15:30:21.417Z,30.00
2023-03-01T15:32:48.204Z,30.00
2023-03-01T15:35:55.175Z,30.00
2023-03-01T15:38:55.526Z,30.10
2023-03-01T15:41:28.488Z,29.80
2023-03-01T15:43:56.619Z,29.50
2023-03-01T15:46:35.534Z,29.80
2023-03-01T15:49:05.771Z,29.90
2023-03-01T15:51:38.725Z,29.90
2023-03-01T15:54:20.170Z,29.80
2023-03-01T15:56:47.390Z,29.90
2023-03-01T15:59:15.050Z,30.00
2023-03-01T16:01:42.667Z,30.00
2023-03-01T16:04:24.424Z,29.50
2023-03-01T16:06:56.242Z,30.00
2023-03-01T16:09:24.556Z,30.10
2023-03-01T16:11:52.456Z,29.90
2023-03-01T16:14:19.417Z,29.90
2023-03-01T16:16:46.872Z,30.00
2023-03-01T16:19:13.685Z,30.10
2023-03-01T16:21:40.477Z,30.10
2023-03-01T16:24:07.642Z,30.10
2023-03-01T16:26:34.349Z,30.20
2023-03-01T16:29:01.131Z,30.20
2023-03-01T16:31:28.429Z,30.00
2023-03-01T16:33:56.977Z,30.00
2023-03-01T16:36:25.440Z,30.00
2023-03-01T16:38:53.426Z,30.20
2023-03-01T16:41:23.252Z,30.30
2023-03-01T16:43:50.831Z,30.10
2023-03-01T16:46:20.755Z,30.20
2023-03-01T16:48:48.064Z,30.10
2023-03-01T16:51:15.174Z,30.00
2023-03-01T16:53:42.377Z,30.40
2023-03-01T16:56:11.397Z,30.00
2023-03-01T16:58:39.162Z,30.00
2023-03-01T17:01:11.786Z,30.00
2023-03-01T17:03:40.074Z,30.00
2023-03-01T17:06:16.206Z,30.20
2023-03-01T17:08:42.988Z,29.90
2023-03-01T17:11:12.965Z,30.00
2023-03-01T17:13:40.819Z,30.10
2023-03-01T17:16:11.097Z,30.10
2023-03-01T17:18:38.927Z,30.00
2023-03-01T17:21:07.622Z,30.20
2023-03-01T17:23:35.821Z,30.20
2023-03-01T17:26:03.300Z,30.10
2023-03-01T17:28:32.591Z,30.10
2023-03-01T17:31:04.377Z,30.10
2023-03-01T17:33:31.551Z,29.90
2023-03-01T17:35:59.840Z,30.00
2023-03-01T17:38:26.953Z,30.00
2023-03-01T17:40:53.695Z,29.80
2023-03-01T17:43:20.518Z,29.90
2023-03-01T17:45:52.313Z,29.80
2023-03-01T17:48:19.209Z,30.00
2023-03-01T17:50:46.569Z,29.90
2023-03-01T17:53:14.009Z,29.90
2023-03-01T17:55:43.080Z,29.80
2023-03-01T17:58:14.101Z,29.80
2023-03-01T18:00:41.224Z,29.80
2023-03-01T18:03:07.942Z,29.80
2023-03-01T18:05:36.632Z,30.00
2023-03-01T18:08:03.885Z,29.90
2023-03-01T18:10:32.377Z,30.00
2023-03-01T18:12:59.669Z,29.90
2023-03-01T18:15:27.374Z,29.90
2023-03-01T18:17:54.220Z,29.90
2023-03-01T18:20:21.621Z,29.90
2023-03-01T18:22:49.195Z,29.90
2023-03-01T18:25:15.993Z,29.80
2023-03-01T18:27:42.737Z,29.90
2023-03-01T18:30:10.169Z,29.90
2023-03-01T18:32:37.476Z,29.90
2023-03-01T18:35:04.602Z,30.00
2023-03-01T18:37:31.336Z,30.00
2023-03-01T18:39:58.236Z,30.00
2023-03-01T18:42:25.083Z,29.90
2023-03-01T18:44:53.389Z,30.00
2023-03-01T18:47:20.146Z,30.00
2023-03-01T18:49:46.904Z,30.10
2023-03-01T18:52:13.671Z,30.20
2023-03-01T18:54:40.357Z,30.20
2023-03-01T18:57:07.222Z,30.30
2023-03-01T18:59:33.898Z,30.20
2023-03-01T19:02:00.725Z,31.10
2023-03-01T19:04:27.613Z,30.30
2023-03-01T19:06:54.389Z,30.40
2023-03-01T19:09:21.117Z,30.20
2023-03-01T19:11:47.857Z,30.30
2023-03-01T19:14:14.654Z,30.50
2023-03-01T19:16:41.438Z,30.50
2023-03-01T19:19:10.024Z,30.60
2023-03-01T19:21:37.635Z,30.70
2023-03-01T19:24:05.090Z,30.80
2023-03-01T19:26:32.924Z,30.90
2023-03-01T19:29:00.609Z,30.80
2023-03-01T19:31:30.745Z,31.00
2023-03-01T19:34:09.916Z,31.30
2023-03-01T19:36:39.612Z,31.50
2023-03-01T19:39:07.242Z,31.40
2023-03-01T19:41:34.520Z,31.40
2023-03-01T19:44:04.568Z,31.60
2023-03-01T19:46:34.862Z,31.40
2023-03-01T19:49:03.397Z,31.20
2023-03-01T19:51:33.319Z,31.30
2023-03-01T19:54:00.127Z,31.30
2023-03-01T19:56:26.869Z,31.30
2023-03-01T19:59:00.169Z,31.40
2023-03-01T20:01:32.939Z,31.30
2023-03-01T20:04:00.932Z,31.50
2023-03-01T20:06:30.079Z,31.40
2023-03-01T20:08:57.277Z,31.50
2023-03-01T20:11:24.141Z,32.20
2023-03-01T20:13:50.854Z,31.80
2023-03-01T20:16:19.957Z,31.90
2023-03-01T20:18:46.815Z,31.70
2023-03-01T20:21:23.579Z,31.70
2023-03-01T20:23:51.044Z,31.70
2023-03-01T20:26:19.666Z,31.90
2023-03-01T20:28:51.406Z,32.00
2023-03-01T20:31:20.193Z,32.20
2023-03-01T20:33:47.186Z,32.40
2023-03-01T20:36:14.621Z,32.50
2023-03-01T20:38:41.415Z,32.20
2023-03-01T20:41:13.157Z,32.60
2023-03-01T20:43:42.373Z,32.60
2023-03-01T20:46:12.694Z,32.50
2023-03-01T20:48:45.806Z,32.70
2023-03-01T20:51:14.949Z,32.90
2023-03-01T20:53:42.100Z,33.70
2023-03-01T20:56:11.887Z,32.90
2023-03-01T20:58:39.490Z,33.00
2023-03-01T21:01:07.653Z,33.20
2023-03-01T21:03:35.038Z,33.40
2023-03-01T21:06:03.660Z,33.20
2023-03-01T21:08:31.016Z,34.00
2023-03-01T21:10:58.148Z,33.40
2023-03-01T21:13:25.993Z,33.50
2023-03-01T21:15:54.179Z,33.60
2023-03-01T21:18:21.633Z,33.80
2023-03-01T21:20:48.662Z,33.80
2023-03-01T21:23:15.536Z,33.80
2023-03-01T21:25:42.466Z,33.90
2023-03-01T21:28:09.240Z,34.00
2023-03-01T21:30:36.618Z,34.10
2023-03-01T21:33:03.429Z,34.50
2023-03-01T21:35:30.136Z,34.10
2023-03-01T21:37:56.950Z,33.90
2023-03-01T21:40:23.689Z,34.20
2023-03-01T21:42:50.417Z,34.10
2023-03-01T21:45:17.203Z,34.20
2023-03-01T21:47:43.990Z,34.20
2023-03-01T21:50:11.493Z,34.20
2023-03-01T21:52:39.210Z,34.30
2023-03-01T21:55:07.202Z,34.40
2023-03-01T21:57:33.956Z,34.50
2023-03-01T22:00:00.736Z,34.70
2023-03-01T22:02:27.627Z,34.70
2023-03-01T22:04:57.496Z,34.50
2023-03-01T22:07:24.273Z,34.70
2023-03-01T22:09:51.033Z,34.70
2023-03-01T22:12:17.681Z,34.70
2023-03-01T22:14:44.509Z,34.80
2023-03-01T22:17:11.267Z,34.80
2023-03-01T22:19:38.082Z,35.10
2023-03-01T22:22:04.874Z,35.10
2023-03-01T22:24:31.694Z,35.30
2023-03-01T22:26:58.425Z,35.10
2023-03-01T22:29:29.418Z,35.40
2023-03-01T22:31:57.512Z,35.30
2023-03-01T22:34:24.636Z,35.30
2023-03-01T22:36:51.579Z,35.40
2023-03-01T22:39:20.186Z,35.20
2023-03-01T22:41:48.635Z,35.20
2023-03-01T22:44:18.085Z,35.40
2023-03-01T22:46:45.443Z,35.10
2023-03-01T22:49:12.477Z,35.30
2023-03-01T22:51:41.397Z,35.30
2023-03-01T22:54:09.117Z,36.20
2023-03-01T22:56:36.929Z,35.50
2023-03-01T22:59:13.444Z,35.40
2023-03-01T23:01:42.338Z,35.30
2023-03-01T23:04:09.016Z,35.10
2023-03-01T23:06:50.100Z,35.20
2023-03-01T23:09:19.040Z,35.00
2023-03-01T23:11:46.009Z,35.00
2023-03-01T23:14:12.786Z,35.20
2023-03-01T23:16:39.756Z,35.10
2023-03-01T23:19:06.513Z,35.10
2023-03-01T23:21:33.803Z,35.40
2023-03-01T23:24:00.660Z,35.20
2023-03-01T23:26:28.478Z,35.50
2023-03-01T23:28:57.207Z,35.30
2023-03-01T23:31:29.827Z,35.20
2023-03-01T23:33:56.664Z,35.20
2023-03-01T23:36:26.589Z,35.40
2023-03-01T23:38:57.029Z,35.50
2023-03-01T23:41:26.444Z,35.30
2023-03-01T23:43:55.834Z,35.50
2023-03-01T23:46:25.209Z,35.60
2023-03-01T23:48:53.396Z,35.40
2023-03-01T23:51:20.992Z,35.60
2023-03-01T23:53:57.627Z,35.60
2023-03-01T23:56:35.928Z,35.60
2023-03-01T23:59:06.339Z,35.70
